Airfield :







YOU CAN JOIN US ON...

 
LOGIN :

Register | Disclaimer

   EN    FR    IT 

 









Legend :    VFR   Marginal VFR   IFR   Intensive IFR   Very Intensive IFR
Visi :
Ceiling :
>= 8 km
>= 3000ft
5 to 8 km
1000 to 3000 ft
1500m to 5 km
500 to 1000 ft
800 to 1500m
200 to 500 ft
< 800m
< 200 ft
Symbols :   Thunderstorms  Fog  Heavy snow  Heavy precipitations  Wind > 20 kt







- Airport Elevation : 124 ft
- IATA code : YGV


CYGV - Havre St Pierre

CURRENT METAR :
  • 150743Z AUTO 14004KT 4SM BR SCT002 OVC017 10/09 A2983 RMK SLP103

EXPIRED METARs :
  • 150735Z AUTO 15004KT 3SM -RA BR FEW004 OVC017 10/09 A2983 RMK SLP105
  • 150721Z AUTO 13004KT 1 3/4SM -RA BR OVC017 10/09 A2983 RMK SLP105
  • 150717Z AUTO 13003KT 3SM BR BKN015 OVC019 10/09 A2983 RMK SLP106
  • 150629Z AUTO 10002KT 5SM -RA BR OVC015 10/09 A2985 RMK SLP111
  • 150621Z AUTO 10002KT 6SM -RA BR OVC015 10/09 A2985 RMK SLP112
  • 150613Z AUTO VRB02KT 5SM -RA BR OVC015 10/09 A2986 RMK SLP113
  • 150600Z AUTO 14002KT 9SM -RA OVC017 10/09 A2986 RMK SLP115
  • 150538Z AUTO VRB02KT 9SM -RA OVC017 10/09 A2987 RMK SLP118
  • 150531Z AUTO VRB02KT 9SM OVC015 10/09 A2987 RMK SLP119
  • 150504Z AUTO VRB02KT 9SM -RA OVC015 10/09 A2988 RMK SLP121

TAF TAF CYGV
Valid from the 15 at 08:00 until the 15 at 20:00 UTC


150738Z 1508/1520 15005KT 6SM -RA BR OVC015
TEMPO 1508/1512 11/2SM -DZ BR OVC008
PROB30 1508/1512 1/2SM -DZ FG VV002
FM151200 23012KT 3SM -RA BR OVC012
TEMPO 1512/1514 11/2SM -DZ BR OVC006
FM151400 26012KT 2SM -SHRA BR OVC004
TEMPO 1514/1520 1/2SM -RA FG VV002 RMK FCST BASED ON AUTO OBS. NXT FCST BY 151400Z
No reported NOTAMs for that airfield.



MET'MAP, your aeronautical weather chart ! - Copyright ORBIFLY December 2007 - Disclaimer

ORBIFLY MET'MAP TEAM :

Programming & Development : Alexandra Zaïnal
Concept & Development : Baudouin d'Aumeries
Co-Development & Prog : Marc-Olivier Méhu
Technical & hardware support : Manuel Goepfert

Contact : metmap@orbifly.com




SOURCES & CREDITS :

   NOAA